createdAt,value
2022-09-10T00:01:06.976Z,11.32
2022-09-10T00:03:54.790Z,10.38
2022-09-10T00:06:41.602Z,14.85
2022-09-10T00:09:27.167Z,18.13
2022-09-10T00:12:13.528Z,13.30
2022-09-10T00:14:59.210Z,13.50
2022-09-10T00:17:45.125Z,16.13
2022-09-10T00:20:31.244Z,16.95
2022-09-10T00:23:19.131Z,15.57
2022-09-10T00:26:15.133Z,17.30
2022-09-10T00:29:01.670Z,15.35
2022-09-10T00:31:47.430Z,16.92
2022-09-10T00:34:33.265Z,13.68
2022-09-10T00:37:19.185Z,16.10
2022-09-10T00:40:05.685Z,17.27
2022-09-10T00:42:51.636Z,15.38
2022-09-10T00:45:37.750Z,12.50
2022-09-10T00:48:30.995Z,12.00
2022-09-10T00:51:16.861Z,15.83
2022-09-10T00:54:03.317Z,15.80
2022-09-10T00:56:49.778Z,16.00
2022-09-10T00:59:36.077Z,11.02
2022-09-10T01:02:22.088Z,13.45
2022-09-10T01:05:09.940Z,16.02
2022-09-10T01:07:58.031Z,13.13
2022-09-10T01:11:09.100Z,18.80
2022-09-10T01:14:28.811Z,16.90
2022-09-10T01:17:21.253Z,15.75
2022-09-10T01:20:32.453Z,19.23
2022-09-10T01:23:41.405Z,17.30
2022-09-10T01:26:42.715Z,13.32
2022-09-10T01:29:44.575Z,18.48
2022-09-10T01:32:40.649Z,16.63
2022-09-10T01:35:50.084Z,17.55
2022-09-10T01:38:44.207Z,19.70
2022-09-10T01:41:31.454Z,14.00
2022-09-10T01:44:43.905Z,14.70
2022-09-10T01:47:54.466Z,17.00
2022-09-10T01:51:17.877Z,15.18
2022-09-10T01:54:37.166Z,20.05
2022-09-10T01:57:23.308Z,13.60
2022-09-10T02:00:11.586Z,13.48
2022-09-10T02:03:05.910Z,15.05
2022-09-10T02:05:54.944Z,13.23
2022-09-10T02:08:41.883Z,14.90
2022-09-10T02:11:29.242Z,15.93
2022-09-10T02:14:21.708Z,16.05
2022-09-10T02:17:31.863Z,12.90
2022-09-10T02:20:19.500Z,14.48
2022-09-10T02:23:05.449Z,13.65
2022-09-10T02:25:51.392Z,13.25
2022-09-10T02:28:37.764Z,14.40
2022-09-10T02:31:23.966Z,27.40
2022-09-10T02:34:10.809Z,21.15
2022-09-10T02:36:57.654Z,17.00
2022-09-10T02:39:45.477Z,16.25
2022-09-10T02:42:35.001Z,14.50
2022-09-10T02:45:21.387Z,15.60
2022-09-10T02:48:07.605Z,16.30
2022-09-10T02:50:54.692Z,18.70
2022-09-10T02:53:40.774Z,14.35
2022-09-10T02:56:27.506Z,16.67
2022-09-10T02:59:13.272Z,20.42
2022-09-10T03:02:00.126Z,18.17
2022-09-10T03:04:46.590Z,22.50
2022-09-10T03:07:33.101Z,18.80
2022-09-10T03:10:19.606Z,21.58
2022-09-10T03:13:05.389Z,18.52
2022-09-10T03:15:52.888Z,12.48
2022-09-10T03:18:40.519Z,14.00
2022-09-10T03:21:29.415Z,13.18
2022-09-10T03:24:16.992Z,14.75
2022-09-10T03:27:04.315Z,13.55
2022-09-10T03:29:50.054Z,17.52
2022-09-10T03:32:37.303Z,16.80
2022-09-10T03:35:25.368Z,15.73
2022-09-10T03:38:11.833Z,21.85
2022-09-10T03:40:58.701Z,17.05
2022-09-10T03:43:46.837Z,17.48
2022-09-10T03:46:34.252Z,17.75
2022-09-10T03:49:22.935Z,15.57
2022-09-10T03:52:12.676Z,17.77
2022-09-10T03:55:00.496Z,18.77
2022-09-10T03:57:47.274Z,14.43
2022-09-10T04:00:34.609Z,18.27
2022-09-10T04:03:20.704Z,21.10
2022-09-10T04:06:10.417Z,16.65
2022-09-10T04:08:56.717Z,16.90
2022-09-10T04:11:42.771Z,14.57
2022-09-10T04:14:29.968Z,16.52
2022-09-10T04:17:15.803Z,16.30
2022-09-10T04:20:03.497Z,16.27
2022-09-10T04:22:53.699Z,16.70
2022-09-10T04:25:39.833Z,16.60
2022-09-10T04:28:26.333Z,15.57
2022-09-10T04:31:13.464Z,14.95
2022-09-10T04:34:03.125Z,37.85
2022-09-10T04:36:53.647Z,16.85
2022-09-10T04:39:40.319Z,13.20
2022-09-10T04:42:26.399Z,16.83
2022-09-10T04:45:13.011Z,16.92
2022-09-10T04:48:04.827Z,29.48
2022-09-10T04:51:17.423Z,17.95
2022-09-10T04:54:08.038Z,15.32
2022-09-10T04:56:57.005Z,14.00
2022-09-10T04:59:43.497Z,17.73
2022-09-10T05:02:30.299Z,16.80
2022-09-10T05:05:16.410Z,17.60
2022-09-10T05:08:05.069Z,15.40
2022-09-10T05:10:50.856Z,17.00
2022-09-10T05:13:36.976Z,14.88
2022-09-10T05:16:24.022Z,19.05
2022-09-10T05:19:22.753Z,15.82
2022-09-10T05:22:14.702Z,19.55
2022-09-10T05:25:01.727Z,15.93
2022-09-10T05:27:48.361Z,17.42
2022-09-10T05:30:38.436Z,14.48
2022-09-10T05:33:25.135Z,16.42
2022-09-10T05:36:11.659Z,16.73
2022-09-10T05:39:00.391Z,16.77
2022-09-10T05:41:48.934Z,16.58
2022-09-10T05:44:35.252Z,14.88
2022-09-10T05:47:22.240Z,16.15
2022-09-10T05:50:08.710Z,19.98
2022-09-10T05:52:57.135Z,16.35
2022-09-10T05:55:46.139Z,17.02
2022-09-10T05:58:34.512Z,19.23
2022-09-10T06:01:20.717Z,16.40
2022-09-10T06:04:07.028Z,21.10
2022-09-10T06:06:54.276Z,16.75
2022-09-10T06:09:40.190Z,18.88
2022-09-10T06:12:46.429Z,18.67
2022-09-10T06:15:35.898Z,19.55
2022-09-10T06:18:22.468Z,18.02
2022-09-10T06:21:14.420Z,20.35
2022-09-10T06:24:02.296Z,23.70
2022-09-10T06:26:51.997Z,15.80
2022-09-10T06:29:40.183Z,17.67
2022-09-10T06:32:27.982Z,16.58
2022-09-10T06:35:14.106Z,17.52
2022-09-10T06:38:00.169Z,16.33
2022-09-10T06:40:57.870Z,17.52
2022-09-10T06:44:22.466Z,16.77
2022-09-10T06:48:37.546Z,14.50
2022-09-10T06:51:13.713Z,16.98
2022-09-10T06:54:02.837Z,14.90
2022-09-10T06:56:49.549Z,11.88
2022-09-10T06:59:35.398Z,13.35
2022-09-10T07:02:21.684Z,26.63
2022-09-10T07:05:10.935Z,26.83
2022-09-10T07:07:57.983Z,20.52
2022-09-10T07:10:45.849Z,17.20
2022-09-10T07:13:34.846Z,11.65
2022-09-10T07:17:31.116Z,13.25
2022-09-10T07:20:18.053Z,11.48
2022-09-10T07:23:08.902Z,8.05
2022-09-10T07:26:19.721Z,12.68
2022-09-10T07:29:36.606Z,11.02
2022-09-10T07:33:39.198Z,7.95
2022-09-10T07:36:25.649Z,9.55
2022-09-10T07:39:24.928Z,16.23
2022-09-10T07:42:11.849Z,11.02
2022-09-10T07:49:58.553Z,11.48
2022-09-10T07:52:52.891Z,7.70
2022-09-10T07:55:41.424Z,8.30
2022-09-10T07:59:02.718Z,10.93
2022-09-10T08:02:02.954Z,9.68
2022-09-10T08:04:49.609Z,8.27
2022-09-10T08:07:58.641Z,9.55
2022-09-10T08:10:47.182Z,9.05
2022-09-10T08:13:37.325Z,8.10
2022-09-10T08:16:24.830Z,11.38
2022-09-10T08:19:14.998Z,14.50
2022-09-10T08:22:01.438Z,9.15
2022-09-10T08:24:53.501Z,9.80
2022-09-10T08:27:42.787Z,12.15
2022-09-10T08:30:29.021Z,8.80
2022-09-10T08:33:16.794Z,10.20
2022-09-10T08:36:04.809Z,13.43
2022-09-10T08:38:51.242Z,15.32
2022-09-10T08:41:41.072Z,11.23
2022-09-10T08:45:00.329Z,9.55
2022-09-10T08:48:19.483Z,9.95
2022-09-10T08:51:29.260Z,10.95
2022-09-10T08:54:26.957Z,8.00
2022-09-10T08:57:36.895Z,9.80
2022-09-10T09:00:45.680Z,9.75
2022-09-10T09:03:39.020Z,7.82
2022-09-10T09:06:36.261Z,13.02
2022-09-10T09:09:22.473Z,9.50
2022-09-10T09:13:08.142Z,10.02
2022-09-10T09:16:38.819Z,12.55
2022-09-10T09:19:34.682Z,6.57
2022-09-10T09:22:53.947Z,7.43
2022-09-10T09:26:29.882Z,7.15
2022-09-10T09:29:42.412Z,8.07
2022-09-10T09:33:48.200Z,10.20
2022-09-10T09:36:37.984Z,16.08
2022-09-10T09:40:07.143Z,14.63
2022-09-10T09:43:05.172Z,10.25
2022-09-10T09:45:53.494Z,9.90
2022-09-10T09:48:53.620Z,8.40
2022-09-10T09:52:31.889Z,11.77
2022-09-10T09:55:33.006Z,10.68
2022-09-10T09:58:21.866Z,7.93
2022-09-10T10:01:13.281Z,9.05
2022-09-10T10:04:02.911Z,10.70
2022-09-10T10:06:57.873Z,11.15
2022-09-10T10:09:44.414Z,16.35
2022-09-10T10:12:31.757Z,13.07
2022-09-10T10:15:36.663Z,7.78
2022-09-10T10:18:22.691Z,11.55
2022-09-10T10:21:11.473Z,7.53
2022-09-10T10:23:57.235Z,10.65
2022-09-10T10:26:45.755Z,11.35
2022-09-10T10:29:31.760Z,11.38
2022-09-10T10:32:19.782Z,16.60
2022-09-10T10:35:27.092Z,7.13
2022-09-10T10:38:34.562Z,14.20
2022-09-10T10:41:45.329Z,13.35
2022-09-10T10:44:56.451Z,10.85
2022-09-10T10:47:55.066Z,11.73
2022-09-10T10:50:52.939Z,8.80
2022-09-10T10:54:22.829Z,7.88
2022-09-10T10:57:54.578Z,11.05
2022-09-10T11:00:44.176Z,10.30
2022-09-10T11:03:53.034Z,20.67
2022-09-10T11:06:45.438Z,10.50
2022-09-10T11:09:41.033Z,9.13
2022-09-10T11:12:41.970Z,7.32
2022-09-10T11:16:05.834Z,8.73
2022-09-10T11:19:32.146Z,10.80
2022-09-10T11:22:22.831Z,9.38
2022-09-10T11:25:37.886Z,12.68
2022-09-10T11:29:08.923Z,10.55
2022-09-10T11:32:27.180Z,8.60
2022-09-10T11:35:29.238Z,8.20
2022-09-10T11:38:57.559Z,10.02
2022-09-10T11:41:46.951Z,9.27
2022-09-10T11:45:03.624Z,13.38
2022-09-10T11:48:11.589Z,14.65
2022-09-10T11:51:25.882Z,11.00
2022-09-10T11:54:17.013Z,11.45
2022-09-10T11:57:25.480Z,8.02
2022-09-10T12:00:17.172Z,8.98
2022-09-10T12:03:37.001Z,14.40
2022-09-10T12:06:39.525Z,7.53
2022-09-10T12:10:30.857Z,10.75
2022-09-10T12:13:24.262Z,9.48
2022-09-10T12:19:50.158Z,10.20
2022-09-10T12:22:39.046Z,14.93
2022-09-10T12:25:37.636Z,7.28
2022-09-10T12:28:45.860Z,8.15
2022-09-10T12:32:23.943Z,6.65
2022-09-10T12:36:21.147Z,8.77
2022-09-10T12:39:29.301Z,12.60
2022-09-10T12:42:29.961Z,7.68
2022-09-10T12:46:12.648Z,8.88
2022-09-10T12:49:10.046Z,5.80
2022-09-10T12:53:01.804Z,7.93
2022-09-10T12:56:29.927Z,7.07
2022-09-10T12:59:27.181Z,9.00
2022-09-10T13:02:27.947Z,8.77
2022-09-10T13:05:36.693Z,11.23
2022-09-10T13:08:34.815Z,7.50
2022-09-10T13:11:24.771Z,11.50
2022-09-10T13:14:24.706Z,5.55
2022-09-10T13:17:48.340Z,8.27
2022-09-10T13:20:35.597Z,6.57
2022-09-10T13:23:47.673Z,8.95
2022-09-10T13:27:53.514Z,6.63
2022-09-10T13:31:18.843Z,8.57
2022-09-10T13:34:52.043Z,3.88
2022-09-10T13:38:33.492Z,7.35
2022-09-10T13:41:25.024Z,11.85
2022-09-10T13:44:46.699Z,4.18
2022-09-10T13:48:01.827Z,6.72
2022-09-10T13:51:12.897Z,3.72
2022-09-10T13:54:09.284Z,5.47
2022-09-10T13:56:56.297Z,8.27
2022-09-10T13:59:43.122Z,9.50
2022-09-10T14:03:13.015Z,7.68
2022-09-10T14:06:04.281Z,10.98
2022-09-10T14:12:08.040Z,10.45
2022-09-10T14:14:56.965Z,9.55
2022-09-10T14:18:08.315Z,7.07
2022-09-10T14:21:04.242Z,6.75
2022-09-10T14:23:50.460Z,11.30
2022-09-10T14:26:36.673Z,7.00
2022-09-10T14:29:26.167Z,6.80
2022-09-10T14:32:33.381Z,7.80
2022-09-10T14:35:49.414Z,15.02
2022-09-10T14:38:38.167Z,16.48
2022-09-10T14:41:29.684Z,14.68
2022-09-10T14:44:20.346Z,7.72
2022-09-10T14:47:09.309Z,6.38
2022-09-10T14:49:57.203Z,11.43
2022-09-10T14:52:43.113Z,8.18
2022-09-10T14:55:31.083Z,8.20
2022-09-10T14:58:17.002Z,5.15
2022-09-10T15:01:04.015Z,8.07
2022-09-10T15:03:49.729Z,6.85
2022-09-10T15:06:37.222Z,7.53
2022-09-10T15:09:24.978Z,11.40
2022-09-10T15:12:23.090Z,14.23
2022-09-10T15:15:21.847Z,7.75
2022-09-10T15:18:14.609Z,3.88
2022-09-10T15:21:01.678Z,8.73
2022-09-10T15:23:55.733Z,11.02
2022-09-10T15:26:42.723Z,8.90
2022-09-10T15:29:39.234Z,6.32
2022-09-10T15:32:25.307Z,4.32
2022-09-10T15:35:11.360Z,9.65
2022-09-10T15:37:57.755Z,6.45
2022-09-10T15:40:44.189Z,7.03
2022-09-10T15:43:30.122Z,6.13
2022-09-10T15:47:05.341Z,6.70
2022-09-10T15:51:05.472Z,9.02
2022-09-10T15:53:52.816Z,14.90
2022-09-10T15:56:39.754Z,12.27
2022-09-10T15:59:25.592Z,11.23
2022-09-10T16:02:18.858Z,15.75
2022-09-10T16:05:06.039Z,6.55
2022-09-10T16:07:51.981Z,6.38
2022-09-10T16:11:19.408Z,12.35
2022-09-10T16:14:49.074Z,8.65
2022-09-10T16:17:35.367Z,7.28
2022-09-10T16:20:21.638Z,10.88
2022-09-10T16:23:10.815Z,9.00
2022-09-10T16:25:56.729Z,12.40
2022-09-10T16:28:58.530Z,6.32
2022-09-10T16:31:47.205Z,5.18
2022-09-10T16:34:33.212Z,7.85
2022-09-10T16:37:19.454Z,7.43
2022-09-10T16:40:05.974Z,10.05
2022-09-10T16:42:51.685Z,8.88
2022-09-10T16:45:37.435Z,8.07
2022-09-10T16:48:23.148Z,6.93
2022-09-10T16:51:16.661Z,6.55
2022-09-10T16:54:05.651Z,8.55
2022-09-10T16:56:51.493Z,3.65
2022-09-10T16:59:37.330Z,8.00
2022-09-10T17:02:23.420Z,4.88
2022-09-10T17:05:09.864Z,8.82
2022-09-10T17:07:55.540Z,4.35
2022-09-10T17:10:41.510Z,8.40
2022-09-10T17:13:27.249Z,8.95
2022-09-10T17:16:26.370Z,5.28
2022-09-10T17:19:15.049Z,5.68
2022-09-10T17:22:01.051Z,7.75
2022-09-10T17:24:49.349Z,5.53
2022-09-10T17:27:36.358Z,8.32
2022-09-10T17:30:22.260Z,7.28
2022-09-10T17:33:08.266Z,9.55
2022-09-10T17:36:00.214Z,9.27
2022-09-10T17:38:46.242Z,9.75
2022-09-10T17:41:32.270Z,6.88
2022-09-10T17:44:18.285Z,11.40
2022-09-10T17:47:04.331Z,9.38
2022-09-10T17:49:52.179Z,11.27
2022-09-10T17:52:38.172Z,11.13
2022-09-10T17:55:31.731Z,10.82
2022-09-10T17:58:19.560Z,8.65
2022-09-10T18:01:08.704Z,7.07
2022-09-10T18:03:55.655Z,15.45
2022-09-10T18:06:41.623Z,11.77
2022-09-10T18:09:27.806Z,6.00
2022-09-10T18:12:13.959Z,14.40
2022-09-10T18:15:01.144Z,12.65
2022-09-10T18:17:47.169Z,8.10
2022-09-10T18:20:32.882Z,10.45
2022-09-10T18:23:19.415Z,14.25
2022-09-10T18:26:16.404Z,8.10
2022-09-10T18:29:10.487Z,8.77
2022-09-10T18:31:58.257Z,11.82
2022-09-10T18:34:44.423Z,12.52
2022-09-10T18:37:30.327Z,15.45
2022-09-10T18:40:16.170Z,10.52
2022-09-10T18:43:01.959Z,10.70
2022-09-10T18:45:47.829Z,16.02
2022-09-10T18:48:34.541Z,13.88
2022-09-10T18:51:22.493Z,11.32
2022-09-10T18:54:09.619Z,17.67
2022-09-10T18:56:57.298Z,11.02
2022-09-10T18:59:44.150Z,12.48
2022-09-10T19:02:30.131Z,15.90
2022-09-10T19:05:16.277Z,17.75
2022-09-10T19:08:02.745Z,11.38
2022-09-10T19:10:48.635Z,13.60
2022-09-10T19:13:34.578Z,14.60
2022-09-10T19:16:22.766Z,9.75
2022-09-10T19:19:18.660Z,12.68
2022-09-10T19:22:10.640Z,12.52
2022-09-10T19:24:56.672Z,14.70
2022-09-10T19:27:45.108Z,14.00
2022-09-10T19:30:35.632Z,10.55
2022-09-10T19:33:21.457Z,10.85
2022-09-10T19:36:14.379Z,12.38
2022-09-10T19:39:01.798Z,10.77
2022-09-10T19:41:48.937Z,10.15
2022-09-10T19:44:34.659Z,13.57
2022-09-10T19:47:20.967Z,13.70
2022-09-10T19:50:07.224Z,13.63
2022-09-10T19:52:53.774Z,14.48
2022-09-10T19:55:39.944Z,23.50
2022-09-10T19:58:25.875Z,18.60
2022-09-10T20:01:14.294Z,18.02
2022-09-10T20:04:01.765Z,17.42
2022-09-10T20:06:47.772Z,19.45
2022-09-10T20:09:36.778Z,23.35
2022-09-10T20:12:25.811Z,16.92
2022-09-10T20:15:11.759Z,15.40
2022-09-10T20:17:57.929Z,17.75
2022-09-10T20:20:43.817Z,24.13
2022-09-10T20:23:29.621Z,15.52
2022-09-10T20:26:17.911Z,16.60
2022-09-10T20:29:07.880Z,20.52
2022-09-10T20:31:58.651Z,14.95
2022-09-10T20:34:45.294Z,13.43
2022-09-10T20:37:31.312Z,12.15
2022-09-10T20:40:17.401Z,14.55
2022-09-10T20:43:03.244Z,12.13
2022-09-10T20:45:49.401Z,21.65
2022-09-10T20:48:35.214Z,12.02
2022-09-10T20:51:21.430Z,12.27
2022-09-10T20:54:10.846Z,14.63
2022-09-10T20:56:56.744Z,12.52
2022-09-10T20:59:44.112Z,15.32
2022-09-10T21:02:30.122Z,15.88
2022-09-10T21:05:16.403Z,14.98
2022-09-10T21:08:03.537Z,15.40
2022-09-10T21:10:49.842Z,15.85
2022-09-10T21:13:36.471Z,11.45
2022-09-10T21:16:28.393Z,12.25
2022-09-10T21:19:16.165Z,13.52
2022-09-10T21:22:02.914Z,14.40
2022-09-10T21:24:48.717Z,15.73
2022-09-10T21:27:34.477Z,12.90
2022-09-10T21:30:20.299Z,15.35
2022-09-10T21:33:07.182Z,16.95
2022-09-10T21:36:02.844Z,14.20
2022-09-10T21:38:53.333Z,10.55
2022-09-10T21:41:42.500Z,22.00
2022-09-10T21:44:28.460Z,23.52
2022-09-10T21:47:14.431Z,20.40
2022-09-10T21:50:00.602Z,15.85
2022-09-10T21:52:46.558Z,14.63
2022-09-10T21:55:32.675Z,13.15
2022-09-10T21:58:18.466Z,18.95
2022-09-10T22:01:10.089Z,16.70
2022-09-10T22:04:00.579Z,15.73
2022-09-10T22:06:47.055Z,20.38
2022-09-10T22:09:33.826Z,11.95
2022-09-10T22:12:19.603Z,21.25
2022-09-10T22:15:06.794Z,14.20
2022-09-10T22:17:52.656Z,14.73
2022-09-10T22:20:38.338Z,15.27
2022-09-10T22:23:24.249Z,13.18
2022-09-10T22:26:17.949Z,13.18
2022-09-10T22:29:03.843Z,14.30
2022-09-10T22:31:50.212Z,16.17
2022-09-10T22:34:36.636Z,17.55
2022-09-10T22:37:22.601Z,16.10
2022-09-10T22:40:08.446Z,13.20
2022-09-10T22:42:54.525Z,11.73
2022-09-10T22:45:40.203Z,21.83
2022-09-10T22:48:26.016Z,11.82
2022-09-10T22:51:15.672Z,10.25
2022-09-10T22:54:03.887Z,9.80
2022-09-10T22:56:50.577Z,12.52
2022-09-10T22:59:38.000Z,17.45
2022-09-10T23:02:25.545Z,10.23
2022-09-10T23:05:13.239Z,9.82
2022-09-10T23:08:00.568Z,18.73
2022-09-10T23:10:47.736Z,11.07
2022-09-10T23:13:35.251Z,7.68
2022-09-10T23:16:36.767Z,13.13
2022-09-10T23:19:25.892Z,9.30
2022-09-10T23:22:12.906Z,12.63
2022-09-10T23:24:59.422Z,8.45
2022-09-10T23:27:48.735Z,9.27
2022-09-10T23:30:36.764Z,14.45
2022-09-10T23:33:23.506Z,17.92
2022-09-10T23:36:14.407Z,11.48
2022-09-10T23:39:02.672Z,9.73
2022-09-10T23:41:52.026Z,13.93
2022-09-10T23:44:39.020Z,19.73
2022-09-10T23:47:26.525Z,18.80
2022-09-10T23:50:15.284Z,17.17
2022-09-10T23:53:04.772Z,8.68
2022-09-10T23:55:52.508Z,11.40
2022-09-10T23:58:39.332Z,15.82
